createdAt,value
2019-03-17T00:00:17.721Z,1.87
2019-03-17T00:02:44.584Z,1.93
2019-03-17T00:05:11.287Z,2.70
2019-03-17T00:07:38.813Z,2.30
2019-03-17T00:10:13.384Z,3.17
2019-03-17T00:12:40.071Z,2.00
2019-03-17T00:15:07.922Z,2.30
2019-03-17T00:17:34.607Z,2.10
2019-03-17T00:20:04.205Z,2.00
2019-03-17T00:22:30.924Z,1.90
2019-03-17T00:25:08.516Z,1.87
2019-03-17T00:27:28.617Z,2.20
2019-03-17T00:29:55.311Z,2.00
2019-03-17T00:32:22.168Z,1.50
2019-03-17T00:34:50.956Z,2.20
2019-03-17T00:37:17.533Z,2.23
2019-03-17T00:39:44.822Z,2.03
2019-03-17T00:42:11.546Z,1.70
2019-03-17T00:44:38.258Z,1.73
2019-03-17T00:47:06.411Z,1.70
2019-03-17T00:49:33.246Z,1.93
2019-03-17T00:51:59.964Z,1.43
2019-03-17T00:54:26.767Z,1.70
2019-03-17T00:56:53.486Z,1.77
2019-03-17T00:59:20.200Z,1.70
2019-03-17T01:01:46.925Z,2.60
2019-03-17T01:04:13.674Z,1.70
2019-03-17T01:06:40.784Z,2.07
2019-03-17T01:09:10.442Z,1.80
2019-03-17T01:11:37.266Z,1.93
2019-03-17T01:14:04.056Z,1.90
2019-03-17T01:16:30.925Z,2.07
2019-03-17T01:18:57.651Z,2.00
2019-03-17T01:21:24.488Z,1.70
2019-03-17T01:23:51.191Z,1.70
2019-03-17T01:26:17.918Z,1.80
2019-03-17T01:28:44.807Z,1.87
2019-03-17T01:31:13.461Z,1.90
2019-03-17T01:33:40.146Z,2.10
2019-03-17T01:36:07.219Z,2.10
2019-03-17T01:38:33.907Z,1.90
2019-03-17T01:41:00.609Z,2.00
2019-03-17T01:43:27.334Z,1.93
2019-03-17T01:45:55.334Z,1.90
2019-03-17T01:48:22.051Z,2.27
2019-03-17T01:50:51.631Z,1.80
2019-03-17T01:53:18.333Z,1.90
2019-03-17T01:55:45.065Z,2.00
2019-03-17T01:58:14.397Z,1.73
2019-03-17T02:00:42.650Z,1.83
2019-03-17T02:03:09.367Z,1.90
2019-03-17T02:05:36.087Z,2.40
2019-03-17T02:08:02.804Z,1.80
2019-03-17T02:10:29.589Z,2.13
2019-03-17T02:12:56.328Z,1.97
2019-03-17T02:15:23.034Z,2.00
2019-03-17T02:17:49.735Z,2.17
2019-03-17T02:20:16.476Z,1.80
2019-03-17T02:22:43.203Z,1.80
2019-03-17T02:25:10.262Z,2.50
2019-03-17T02:27:38.512Z,2.43
2019-03-17T02:30:06.091Z,1.93
2019-03-17T02:32:32.780Z,1.63
2019-03-17T02:34:59.500Z,2.13
2019-03-17T02:37:26.183Z,1.80
2019-03-17T02:39:52.896Z,2.30
2019-03-17T02:42:19.852Z,1.97
2019-03-17T02:44:46.600Z,1.60
2019-03-17T02:47:16.987Z,1.90
2019-03-17T02:49:44.076Z,1.80
2019-03-17T02:52:10.771Z,1.60
2019-03-17T02:54:37.581Z,2.10
2019-03-17T02:57:04.308Z,1.70
2019-03-17T02:59:31.207Z,1.60
2019-03-17T03:01:59.786Z,1.50
2019-03-17T03:04:26.491Z,2.00
2019-03-17T03:06:53.278Z,1.90
2019-03-17T03:09:20.006Z,1.50
2019-03-17T03:11:46.813Z,1.90
2019-03-17T03:14:13.520Z,1.63
2019-03-17T03:16:40.243Z,1.70
2019-03-17T03:19:06.986Z,1.70
2019-03-17T03:21:33.705Z,1.70
2019-03-17T03:24:00.414Z,1.80
2019-03-17T03:26:27.173Z,2.00
2019-03-17T03:28:53.944Z,1.70
2019-03-17T03:31:20.666Z,2.10
2019-03-17T03:33:47.899Z,1.80
2019-03-17T03:36:15.045Z,2.30
2019-03-17T03:38:41.741Z,1.80
2019-03-17T03:41:08.559Z,2.20
2019-03-17T03:43:37.991Z,2.07
2019-03-17T03:46:04.737Z,1.63
2019-03-17T03:48:31.773Z,2.20
2019-03-17T03:50:58.517Z,1.60
2019-03-17T03:53:25.239Z,1.80
2019-03-17T03:55:52.331Z,1.73
2019-03-17T03:58:19.061Z,2.10
2019-03-17T04:00:46.111Z,1.80
2019-03-17T04:03:13.196Z,1.80
2019-03-17T04:05:39.957Z,1.90
2019-03-17T04:08:06.676Z,1.70
2019-03-17T04:10:33.408Z,1.90
2019-03-17T04:13:01.496Z,1.90
2019-03-17T04:15:28.219Z,1.80
2019-03-17T04:17:54.915Z,1.90
2019-03-17T04:20:21.693Z,2.00
2019-03-17T04:22:48.565Z,1.90
2019-03-17T04:25:18.323Z,1.70
2019-03-17T04:27:45.049Z,1.50
2019-03-17T04:30:12.091Z,1.37
2019-03-17T04:32:39.235Z,1.70
2019-03-17T04:35:05.994Z,1.70
2019-03-17T04:37:32.672Z,1.80
2019-03-17T04:39:59.407Z,1.70
2019-03-17T04:42:26.096Z,2.07
2019-03-17T04:44:53.275Z,2.00
2019-03-17T04:47:19.970Z,1.90
2019-03-17T04:49:47.083Z,1.80
2019-03-17T04:52:13.787Z,2.00
2019-03-17T04:54:40.505Z,1.70
2019-03-17T04:57:07.335Z,1.80
2019-03-17T04:59:34.046Z,1.97
2019-03-17T05:02:00.793Z,1.67
2019-03-17T05:04:27.554Z,1.90
2019-03-17T05:06:54.395Z,2.13
2019-03-17T05:09:21.108Z,1.77
2019-03-17T05:11:47.847Z,1.80
2019-03-17T05:14:14.539Z,1.83
2019-03-17T05:16:41.257Z,1.70
2019-03-17T05:19:07.993Z,1.80
2019-03-17T05:21:34.720Z,2.10
2019-03-17T05:24:01.501Z,1.90
2019-03-17T05:26:28.314Z,1.90
2019-03-17T05:28:55.818Z,2.10
2019-03-17T05:31:22.525Z,2.30
2019-03-17T05:33:49.212Z,1.80
2019-03-17T05:36:16.029Z,1.90
2019-03-17T05:38:42.725Z,2.07
2019-03-17T05:41:11.113Z,1.97
2019-03-17T05:43:37.829Z,1.90
2019-03-17T05:46:04.605Z,2.10
2019-03-17T05:48:31.336Z,2.20
2019-03-17T05:50:58.042Z,1.90
2019-03-17T05:53:24.729Z,1.90
2019-03-17T05:55:51.700Z,2.20
2019-03-17T05:58:21.280Z,2.80
2019-03-17T06:00:48.027Z,2.00
2019-03-17T06:03:14.720Z,2.07
2019-03-17T06:05:41.489Z,2.00
2019-03-17T06:08:08.199Z,2.33
2019-03-17T06:10:34.917Z,1.87
2019-03-17T06:13:01.623Z,2.30
2019-03-17T06:15:28.659Z,1.97
2019-03-17T06:17:58.823Z,2.10
2019-03-17T06:20:25.532Z,1.60
2019-03-17T06:22:52.337Z,2.13
2019-03-17T06:25:19.110Z,2.20
2019-03-17T06:27:45.954Z,1.90
2019-03-17T06:30:12.714Z,2.07
2019-03-17T06:32:39.409Z,2.50
2019-03-17T06:35:06.161Z,1.87
2019-03-17T06:37:32.890Z,2.40
2019-03-17T06:39:59.624Z,2.07
2019-03-17T06:42:28.255Z,2.10
2019-03-17T06:44:54.979Z,2.10
2019-03-17T06:47:22.086Z,2.37
2019-03-17T06:49:51.625Z,2.40
2019-03-17T06:52:18.344Z,2.30
2019-03-17T06:54:45.475Z,2.40
2019-03-17T06:57:12.202Z,2.30
2019-03-17T06:59:38.897Z,2.20
2019-03-17T07:02:05.596Z,2.20
2019-03-17T07:04:32.320Z,2.37
2019-03-17T07:06:59.088Z,1.57
2019-03-17T07:09:25.778Z,1.90
2019-03-17T07:11:52.521Z,1.83
2019-03-17T07:14:19.594Z,2.10
2019-03-17T07:16:46.281Z,2.37
2019-03-17T07:19:12.974Z,2.27
2019-03-17T07:21:39.675Z,2.50
2019-03-17T07:24:06.450Z,2.10
2019-03-17T07:26:33.148Z,2.10
2019-03-17T07:28:59.872Z,2.03
2019-03-17T07:31:26.666Z,2.23
2019-03-17T07:33:53.538Z,2.17
2019-03-17T07:36:20.254Z,2.20
2019-03-17T07:38:46.988Z,2.40
2019-03-17T07:41:13.704Z,2.40
2019-03-17T07:43:40.429Z,2.40
2019-03-17T07:46:07.119Z,2.50
2019-03-17T07:48:33.867Z,2.07
2019-03-17T07:51:01.424Z,2.50
2019-03-17T07:53:28.185Z,2.43
2019-03-17T07:55:55.364Z,2.30
2019-03-17T07:58:22.087Z,2.90
2019-03-17T08:00:48.781Z,2.10
2019-03-17T08:03:17.505Z,2.60
2019-03-17T08:05:45.174Z,2.70
2019-03-17T08:08:12.006Z,2.70
2019-03-17T08:10:38.735Z,3.00
2019-03-17T08:13:05.597Z,2.60
2019-03-17T08:15:32.458Z,2.90
2019-03-17T08:17:59.562Z,3.13
2019-03-17T08:20:26.732Z,2.60
2019-03-17T08:22:53.387Z,2.70
2019-03-17T08:25:20.160Z,2.30
2019-03-17T08:27:46.966Z,2.60
2019-03-17T08:30:13.712Z,2.30
2019-03-17T08:32:41.422Z,2.80
2019-03-17T08:35:08.480Z,2.23
2019-03-17T08:37:35.248Z,2.40
2019-03-17T08:40:02.070Z,2.60
2019-03-17T08:42:28.932Z,2.53
2019-03-17T08:44:55.683Z,2.50
2019-03-17T08:47:23.780Z,2.40
2019-03-17T08:49:52.448Z,2.23
2019-03-17T08:52:20.566Z,2.30
2019-03-17T08:54:47.330Z,2.70
2019-03-17T08:57:14.030Z,2.80
2019-03-17T08:59:40.729Z,2.30
2019-03-17T09:02:10.190Z,2.63
2019-03-17T09:04:36.930Z,2.50
2019-03-17T09:07:03.646Z,2.50
2019-03-17T09:09:30.478Z,2.70
2019-03-17T09:11:57.302Z,2.40
2019-03-17T09:14:24.710Z,2.70
2019-03-17T09:16:51.454Z,2.40
2019-03-17T09:19:18.172Z,2.77
2019-03-17T09:21:44.886Z,2.60
2019-03-17T09:24:17.195Z,2.53
2019-03-17T09:26:40.311Z,2.67
2019-03-17T09:29:07.044Z,2.43
2019-03-17T09:31:34.074Z,2.23
2019-03-17T09:34:00.938Z,2.13
2019-03-17T09:36:27.828Z,2.37
2019-03-17T09:38:57.264Z,2.37
2019-03-17T09:41:24.003Z,2.30
2019-03-17T09:43:50.708Z,2.40
2019-03-17T09:46:17.911Z,1.93
2019-03-17T09:48:45.302Z,2.37
2019-03-17T09:51:11.979Z,2.33
2019-03-17T09:53:38.713Z,2.20
2019-03-17T09:56:05.596Z,3.50
2019-03-17T09:58:32.297Z,2.30
2019-03-17T10:00:58.989Z,2.10
2019-03-17T10:03:25.701Z,2.10
2019-03-17T10:05:55.242Z,2.37
2019-03-17T10:08:22.002Z,1.93
2019-03-17T10:10:48.724Z,2.00
2019-03-17T10:13:15.458Z,2.17
2019-03-17T10:15:42.167Z,3.20
2019-03-17T10:18:08.880Z,2.40
2019-03-17T10:20:35.581Z,2.30
2019-03-17T10:23:02.288Z,2.90
2019-03-17T10:25:29.408Z,2.60
2019-03-17T10:27:56.147Z,2.30
2019-03-17T10:30:23.079Z,1.70
2019-03-17T10:32:49.809Z,2.90
2019-03-17T10:35:16.560Z,2.93
2019-03-17T10:37:43.731Z,3.00
2019-03-17T10:40:13.162Z,3.00
2019-03-17T10:42:39.887Z,2.77
2019-03-17T10:45:09.166Z,2.67
2019-03-17T10:47:36.122Z,2.57
2019-03-17T10:50:03.500Z,3.00
2019-03-17T10:52:30.219Z,2.80
2019-03-17T10:54:57.480Z,2.83
2019-03-17T10:57:26.061Z,2.27
2019-03-17T10:59:52.790Z,2.83
2019-03-17T11:02:19.504Z,2.70
2019-03-17T11:04:46.299Z,2.40
2019-03-17T11:07:13.051Z,2.50
2019-03-17T11:09:39.954Z,1.70
2019-03-17T11:12:06.698Z,1.33
2019-03-17T11:14:33.529Z,1.63
2019-03-17T11:17:00.596Z,1.60
2019-03-17T11:19:27.316Z,1.00
2019-03-17T11:21:54.678Z,1.40
2019-03-17T11:24:21.518Z,1.00
2019-03-17T11:26:48.253Z,0.67
2019-03-17T11:29:17.968Z,0.80
2019-03-17T11:31:44.714Z,0.73
2019-03-17T11:34:11.448Z,0.80
2019-03-17T11:36:38.146Z,0.70
2019-03-17T11:39:08.821Z,0.77
2019-03-17T11:41:35.966Z,0.70
2019-03-17T11:44:05.522Z,0.70
2019-03-17T11:46:32.323Z,0.60
2019-03-17T11:48:59.064Z,0.60
2019-03-17T11:51:25.761Z,0.70
2019-03-17T11:53:54.047Z,0.90
2019-03-17T11:56:20.780Z,0.70
2019-03-17T11:58:51.535Z,0.83
2019-03-17T12:01:18.404Z,0.70
2019-03-17T12:03:45.148Z,0.70
2019-03-17T12:06:11.817Z,0.67
2019-03-17T12:08:38.640Z,0.90
2019-03-17T12:11:05.398Z,0.80
2019-03-17T12:13:33.869Z,0.90
2019-03-17T12:16:00.960Z,1.07
2019-03-17T12:18:27.710Z,0.90
2019-03-17T12:20:54.438Z,0.90
2019-03-17T12:23:21.386Z,0.90
2019-03-17T12:25:49.533Z,0.80
2019-03-17T12:28:16.360Z,0.90
2019-03-17T12:30:43.280Z,0.70
2019-03-17T12:33:10.090Z,1.00
2019-03-17T12:35:36.952Z,0.60
2019-03-17T12:38:05.654Z,1.20
2019-03-17T12:40:32.405Z,1.13
2019-03-17T12:42:59.142Z,0.83
2019-03-17T12:45:26.465Z,1.30
2019-03-17T12:47:53.179Z,0.90
2019-03-17T12:50:19.944Z,1.20
2019-03-17T12:52:50.018Z,1.10
2019-03-17T12:55:16.957Z,1.13
2019-03-17T12:57:44.058Z,1.00
2019-03-17T13:00:12.871Z,1.10
2019-03-17T13:02:39.902Z,1.00
2019-03-17T13:05:07.064Z,1.60
2019-03-17T13:07:33.967Z,0.90
2019-03-17T13:10:00.657Z,0.90
2019-03-17T13:12:27.497Z,1.10
2019-03-17T13:14:54.305Z,1.47
2019-03-17T13:17:21.042Z,1.23
2019-03-17T13:19:48.506Z,1.20
2019-03-17T13:22:15.720Z,0.90
2019-03-17T13:24:42.947Z,1.10
2019-03-17T13:27:09.695Z,1.40
2019-03-17T13:29:36.507Z,1.27
2019-03-17T13:32:03.333Z,1.40
2019-03-17T13:34:30.565Z,1.13
2019-03-17T13:36:57.577Z,1.50
2019-03-17T13:39:24.958Z,1.87
2019-03-17T13:41:52.325Z,1.60
2019-03-17T13:44:19.533Z,1.10
2019-03-17T13:46:46.799Z,1.93
2019-03-17T13:49:14.043Z,1.77
2019-03-17T13:51:40.981Z,1.73
2019-03-17T13:54:07.985Z,2.80
2019-03-17T13:56:39.463Z,3.67
2019-03-17T13:59:25.414Z,2.60
2019-03-17T14:01:53.779Z,2.20
2019-03-17T14:04:20.557Z,2.67
2019-03-17T14:06:47.485Z,2.03
2019-03-17T14:09:14.551Z,2.30
2019-03-17T14:11:41.335Z,2.30
2019-03-17T14:14:08.043Z,2.30
2019-03-17T14:16:34.749Z,2.37
2019-03-17T14:19:01.483Z,2.30
2019-03-17T14:21:28.637Z,2.40
2019-03-17T14:23:55.381Z,2.33
2019-03-17T14:26:23.730Z,1.73
2019-03-17T14:28:50.541Z,2.10
2019-03-17T14:31:17.291Z,2.30
2019-03-17T14:33:48.034Z,2.27
2019-03-17T14:36:14.785Z,2.57
2019-03-17T14:38:41.609Z,2.00
2019-03-17T14:41:08.343Z,1.70
2019-03-17T14:43:35.114Z,1.90
2019-03-17T14:46:02.173Z,3.40
2019-03-17T14:48:28.903Z,2.53
2019-03-17T14:50:55.638Z,1.23
2019-03-17T14:53:22.663Z,1.30
2019-03-17T14:55:49.785Z,1.23
2019-03-17T14:58:16.535Z,1.27
2019-03-17T15:00:43.647Z,1.27
2019-03-17T15:03:10.432Z,1.40
2019-03-17T15:05:37.536Z,1.20
2019-03-17T15:08:04.278Z,1.40
2019-03-17T15:10:31.015Z,1.60
2019-03-17T15:12:57.736Z,1.20
2019-03-17T15:15:24.433Z,1.10
2019-03-17T15:17:51.156Z,0.97
2019-03-17T15:20:17.893Z,1.40
2019-03-17T15:22:45.233Z,1.13
2019-03-17T15:25:12.293Z,1.00
2019-03-17T15:27:41.689Z,1.10
2019-03-17T15:30:11.432Z,0.90
2019-03-17T15:32:40.779Z,1.10
2019-03-17T15:35:15.376Z,1.23
2019-03-17T15:37:46.750Z,1.60
2019-03-17T15:40:13.483Z,1.10
2019-03-17T15:42:40.241Z,1.20
2019-03-17T15:45:09.047Z,1.40
2019-03-17T15:47:35.767Z,1.40
2019-03-17T15:50:03.363Z,2.70
2019-03-17T15:52:33.388Z,0.93
2019-03-17T15:55:00.495Z,0.60
2019-03-17T15:57:27.232Z,1.00
2019-03-17T15:59:53.906Z,0.90
2019-03-17T16:02:20.740Z,1.00
2019-03-17T16:04:47.473Z,1.00
2019-03-17T16:07:14.171Z,0.70
2019-03-17T16:09:40.921Z,0.93
2019-03-17T16:12:08.251Z,1.00
2019-03-17T16:14:34.910Z,0.90
2019-03-17T16:17:04.598Z,1.30
2019-03-17T16:19:31.376Z,1.17
2019-03-17T16:21:58.216Z,1.30
2019-03-17T16:24:24.947Z,0.93
2019-03-17T16:26:51.646Z,1.30
2019-03-17T16:29:18.848Z,1.40
2019-03-17T16:31:45.561Z,1.20
2019-03-17T16:34:12.316Z,1.60
2019-03-17T16:36:39.316Z,1.10
2019-03-17T16:39:06.869Z,1.20
2019-03-17T16:41:43.397Z,1.00
2019-03-17T16:44:03.690Z,1.10
2019-03-17T16:46:30.763Z,1.30
2019-03-17T16:48:57.491Z,0.80
2019-03-17T16:51:25.165Z,1.20
2019-03-17T16:53:52.952Z,0.90
2019-03-17T16:56:19.895Z,1.10
2019-03-17T16:58:46.629Z,1.40
2019-03-17T17:01:13.399Z,1.77
2019-03-17T17:03:40.117Z,1.20
2019-03-17T17:06:06.840Z,1.00
2019-03-17T17:08:33.566Z,1.73
2019-03-17T17:11:02.258Z,1.60
2019-03-17T17:13:31.556Z,1.33
2019-03-17T17:15:58.594Z,1.27
2019-03-17T17:18:25.331Z,1.30
2019-03-17T17:20:52.776Z,1.40
2019-03-17T17:23:19.534Z,1.30
2019-03-17T17:25:46.637Z,1.30
2019-03-17T17:28:13.399Z,1.70
2019-03-17T17:30:40.145Z,1.67
2019-03-17T17:33:06.907Z,1.80
2019-03-17T17:35:33.606Z,2.03
2019-03-17T17:38:00.377Z,2.30
2019-03-17T17:40:27.141Z,2.97
2019-03-17T17:42:54.106Z,2.33
2019-03-17T17:45:23.198Z,2.47
2019-03-17T17:47:50.208Z,2.57
2019-03-17T17:50:17.081Z,2.17
2019-03-17T17:52:43.923Z,2.27
2019-03-17T17:55:10.800Z,1.80
2019-03-17T17:57:37.631Z,1.80
2019-03-17T18:00:05.145Z,1.70
2019-03-17T18:02:31.825Z,1.77
2019-03-17T18:04:58.562Z,1.50
2019-03-17T18:07:25.366Z,1.60
2019-03-17T18:09:52.149Z,1.80
2019-03-17T18:12:21.161Z,1.93
2019-03-17T18:14:48.221Z,2.43
2019-03-17T18:17:14.962Z,1.90
2019-03-17T18:19:41.680Z,1.30
2019-03-17T18:22:10.034Z,1.90
2019-03-17T18:24:37.278Z,1.30
2019-03-17T18:27:04.018Z,1.67
2019-03-17T18:29:30.898Z,1.40
2019-03-17T18:31:57.606Z,1.73
2019-03-17T18:34:24.342Z,1.30
2019-03-17T18:36:51.059Z,1.67
2019-03-17T18:39:17.829Z,1.77
2019-03-17T18:41:44.643Z,1.97
2019-03-17T18:44:11.614Z,1.70
2019-03-17T18:46:38.396Z,1.67
2019-03-17T18:49:05.353Z,1.90
2019-03-17T18:51:32.521Z,2.23
2019-03-17T18:53:59.389Z,2.03
2019-03-17T18:56:26.242Z,1.97
2019-03-17T18:58:53.388Z,2.30
2019-03-17T19:01:20.503Z,2.00
2019-03-17T19:03:47.222Z,2.00
2019-03-17T19:06:13.987Z,1.60
2019-03-17T19:08:40.890Z,1.70
2019-03-17T19:11:07.654Z,1.97
2019-03-17T19:13:35.426Z,1.77
2019-03-17T19:16:02.177Z,1.20
2019-03-17T19:18:28.914Z,1.90
2019-03-17T19:20:55.643Z,2.07
2019-03-17T19:23:22.488Z,3.00
2019-03-17T19:25:49.196Z,1.70
2019-03-17T19:28:16.000Z,1.63
2019-03-17T19:30:44.240Z,1.60
2019-03-17T19:33:14.419Z,1.63
2019-03-17T19:35:41.286Z,1.77
2019-03-17T19:38:08.001Z,1.53
2019-03-17T19:40:34.829Z,1.10
2019-03-17T19:43:01.523Z,1.10
2019-03-17T19:45:28.246Z,1.33
2019-03-17T19:47:54.961Z,1.50
2019-03-17T19:50:21.957Z,1.40
2019-03-17T19:52:48.698Z,1.30
2019-03-17T19:55:15.435Z,1.10
2019-03-17T19:57:42.514Z,1.10
2019-03-17T20:00:11.836Z,1.20
2019-03-17T20:02:38.642Z,1.10
2019-03-17T20:05:05.369Z,1.27
2019-03-17T20:07:35.751Z,0.90
2019-03-17T20:10:03.035Z,1.07
2019-03-17T20:12:29.764Z,1.10
2019-03-17T20:14:56.666Z,1.03
2019-03-17T20:17:23.913Z,1.50
2019-03-17T20:19:50.731Z,1.17
2019-03-17T20:22:18.714Z,1.10
2019-03-17T20:24:48.450Z,1.30
2019-03-17T20:27:15.332Z,1.60
2019-03-17T20:29:42.138Z,1.30
2019-03-17T20:32:09.091Z,1.47
2019-03-17T20:34:36.527Z,1.40
2019-03-17T20:37:03.398Z,1.30
2019-03-17T20:39:30.119Z,1.23
2019-03-17T20:41:56.929Z,1.20
2019-03-17T20:44:23.632Z,1.03
2019-03-17T20:46:50.566Z,1.27
2019-03-17T20:49:17.335Z,1.50
2019-03-17T20:51:44.386Z,1.40
2019-03-17T20:54:11.446Z,1.30
2019-03-17T20:56:38.554Z,1.30
2019-03-17T20:59:07.586Z,1.40
2019-03-17T21:01:34.442Z,1.30
2019-03-17T21:04:01.198Z,1.50
2019-03-17T21:06:28.043Z,1.83
2019-03-17T21:08:54.938Z,1.60
2019-03-17T21:11:21.827Z,1.73
2019-03-17T21:13:48.576Z,1.60
2019-03-17T21:16:16.017Z,1.70
2019-03-17T21:18:42.765Z,1.30
2019-03-17T21:21:09.549Z,1.60
2019-03-17T21:23:36.265Z,1.53
2019-03-17T21:26:03.288Z,1.70
2019-03-17T21:28:30.358Z,1.60
2019-03-17T21:30:57.269Z,1.40
2019-03-17T21:33:24.029Z,1.60
2019-03-17T21:35:50.914Z,1.20
2019-03-17T21:38:17.970Z,1.17
2019-03-17T21:41:05.654Z,1.40
2019-03-17T21:43:15.569Z,1.20
2019-03-17T21:45:42.303Z,1.10
2019-03-17T21:48:10.745Z,1.20
2019-03-17T21:50:37.534Z,1.27
2019-03-17T21:53:04.267Z,1.50
2019-03-17T21:55:31.034Z,1.30
2019-03-17T21:57:57.960Z,2.00
2019-03-17T22:00:24.659Z,1.27
2019-03-17T22:02:51.383Z,1.23
2019-03-17T22:05:18.121Z,1.13
2019-03-17T22:07:50.303Z,1.00
2019-03-17T22:10:15.426Z,1.10
2019-03-17T22:12:42.147Z,1.03
2019-03-17T22:15:10.553Z,1.70
2019-03-17T22:17:37.534Z,1.60
2019-03-17T22:20:04.605Z,1.30
2019-03-17T22:22:31.319Z,1.20
2019-03-17T22:24:58.079Z,1.43
2019-03-17T22:27:27.625Z,1.43
2019-03-17T22:29:54.445Z,1.47
2019-03-17T22:32:21.517Z,1.80
2019-03-17T22:34:48.240Z,1.67
2019-03-17T22:37:14.993Z,1.20
2019-03-17T22:39:41.873Z,1.60
2019-03-17T22:42:08.848Z,1.70
2019-03-17T22:44:35.895Z,2.10
2019-03-17T22:47:05.923Z,1.20
2019-03-17T22:49:32.691Z,1.33
2019-03-17T22:52:00.155Z,1.70
2019-03-17T22:54:27.166Z,1.40
2019-03-17T22:56:54.256Z,1.87
2019-03-17T22:59:22.689Z,1.70
2019-03-17T23:01:49.457Z,2.07
2019-03-17T23:04:16.199Z,1.57
2019-03-17T23:06:42.958Z,1.70
2019-03-17T23:09:09.881Z,2.10
2019-03-17T23:11:37.992Z,2.03
2019-03-17T23:14:04.691Z,1.60
2019-03-17T23:16:31.431Z,2.30
2019-03-17T23:18:58.123Z,1.50
2019-03-17T23:21:24.863Z,1.90
2019-03-17T23:23:51.615Z,1.80
2019-03-17T23:26:18.403Z,1.87
2019-03-17T23:28:45.143Z,2.40
2019-03-17T23:31:11.884Z,2.40
2019-03-17T23:33:38.913Z,1.83
2019-03-17T23:36:05.695Z,1.83
2019-03-17T23:38:32.498Z,2.40
2019-03-17T23:40:59.218Z,2.03
2019-03-17T23:43:26.523Z,1.70
2019-03-17T23:45:53.339Z,2.03
2019-03-17T23:48:20.731Z,1.80
2019-03-17T23:50:47.487Z,2.10
2019-03-17T23:53:14.243Z,2.03
2019-03-17T23:55:40.951Z,2.00
2019-03-17T23:58:08.039Z,2.00
